createdAt,value
2019-02-22T00:01:26.257Z,96.90
2019-02-22T00:03:52.925Z,97.00
2019-02-22T00:06:19.579Z,96.90
2019-02-22T00:08:47.201Z,96.90
2019-02-22T00:11:14.046Z,97.30
2019-02-22T00:13:40.835Z,96.80
2019-02-22T00:16:07.616Z,97.00
2019-02-22T00:18:34.438Z,97.00
2019-02-22T00:21:01.127Z,96.60
2019-02-22T00:23:27.754Z,96.90
2019-02-22T00:25:54.763Z,96.80
2019-02-22T00:28:21.714Z,96.90
2019-02-22T00:30:48.465Z,96.40
2019-02-22T00:33:15.082Z,96.20
2019-02-22T00:35:41.870Z,96.10
2019-02-22T00:38:08.731Z,96.00
2019-02-22T00:40:35.501Z,95.80
2019-02-22T00:43:02.304Z,95.80
2019-02-22T00:45:29.111Z,95.60
2019-02-22T00:47:55.790Z,95.80
2019-02-22T00:50:22.418Z,96.10
2019-02-22T00:52:49.064Z,96.60
2019-02-22T00:55:15.842Z,96.90
2019-02-22T00:57:42.503Z,96.60
2019-02-22T01:00:09.165Z,96.80
2019-02-22T01:02:35.789Z,97.10
2019-02-22T01:05:02.457Z,96.80
2019-02-22T01:07:29.089Z,97.30
2019-02-22T01:09:55.872Z,97.30
2019-02-22T01:12:22.533Z,97.70
2019-02-22T01:14:49.228Z,97.70
2019-02-22T01:17:15.855Z,97.30
2019-02-22T01:19:42.592Z,97.60
2019-02-22T01:22:09.365Z,97.80
2019-02-22T01:24:36.012Z,97.70
2019-02-22T01:27:02.688Z,97.70
2019-02-22T01:29:29.333Z,97.60
2019-02-22T01:31:56.085Z,97.90
2019-02-22T01:34:22.761Z,97.70
2019-02-22T01:36:49.569Z,97.30
2019-02-22T01:39:16.272Z,97.90
2019-02-22T01:41:42.910Z,98.00
2019-02-22T01:44:20.945Z,98.30
2019-02-22T01:46:47.588Z,98.40
2019-02-22T01:49:14.278Z,98.60
2019-02-22T01:51:40.935Z,98.20
2019-02-22T01:54:07.637Z,98.40
2019-02-22T01:56:34.409Z,98.60
2019-02-22T01:59:01.102Z,99.00
2019-02-22T02:01:27.778Z,99.20
2019-02-22T02:03:54.442Z,99.20
2019-02-22T02:06:21.104Z,99.70
2019-02-22T02:11:23.077Z,99.50
2019-02-22T02:13:49.745Z,99.10
2019-02-22T02:16:16.419Z,99.70
2019-02-22T02:18:43.171Z,99.60
2019-02-22T02:21:09.829Z,99.70
2019-02-22T02:23:36.477Z,99.60
2019-02-22T02:26:03.291Z,99.10
2019-02-22T02:28:29.910Z,98.90
2019-02-22T02:30:56.614Z,98.90
2019-02-22T02:33:23.230Z,98.60
2019-02-22T02:35:50.069Z,98.80
2019-02-22T02:38:16.709Z,99.00
2019-02-22T02:40:43.386Z,99.50
2019-02-22T02:43:10.023Z,99.60
2019-02-22T02:45:36.727Z,99.40
2019-02-22T02:48:03.330Z,99.40
2019-02-22T02:50:30.192Z,99.10
2019-02-22T02:52:56.942Z,98.60
2019-02-22T02:55:29.203Z,98.40
2019-02-22T02:57:55.942Z,98.40
2019-02-22T03:00:22.569Z,98.30
2019-02-22T03:02:49.262Z,98.20
2019-02-22T03:05:15.990Z,97.90
2019-02-22T03:07:44.080Z,97.60
2019-02-22T03:10:10.790Z,97.70
2019-02-22T03:12:37.499Z,98.20
2019-02-22T03:15:06.437Z,98.10
2019-02-22T03:17:33.122Z,98.30
2019-02-22T03:19:59.745Z,98.20
2019-02-22T03:22:26.440Z,98.30
2019-02-22T03:24:53.750Z,98.50
2019-02-22T03:27:20.482Z,98.80
2019-02-22T03:29:47.097Z,98.70
2019-02-22T03:32:13.873Z,98.20
2019-02-22T03:34:40.534Z,97.80
2019-02-22T03:37:07.367Z,97.60
2019-02-22T03:39:34.083Z,97.80
2019-02-22T03:42:00.947Z,98.10
2019-02-22T03:44:27.792Z,98.30
2019-02-22T03:46:54.425Z,98.80
2019-02-22T03:49:21.051Z,99.20
2019-02-22T03:51:47.742Z,99.20
2019-02-22T03:54:14.413Z,98.70
2019-02-22T03:56:41.201Z,98.70
2019-02-22T03:59:07.891Z,98.60
2019-02-22T04:01:34.767Z,99.10
2019-02-22T04:04:01.414Z,98.80
2019-02-22T04:06:28.069Z,98.50
2019-02-22T04:08:54.720Z,98.20
2019-02-22T04:11:23.286Z,98.20
2019-02-22T04:13:49.937Z,98.40
2019-02-22T04:16:16.622Z,98.10
2019-02-22T04:18:44.502Z,98.00
2019-02-22T04:21:11.169Z,97.80
2019-02-22T04:23:37.916Z,97.70
2019-02-22T04:26:05.550Z,98.20
2019-02-22T04:28:32.227Z,98.30
2019-02-22T04:30:58.885Z,98.00
2019-02-22T04:33:25.542Z,98.10
2019-02-22T04:35:52.245Z,98.40
2019-02-22T04:38:19.013Z,98.20
2019-02-22T04:40:45.682Z,98.70
2019-02-22T04:43:12.442Z,98.70
2019-02-22T04:45:39.097Z,98.70
2019-02-22T04:48:05.838Z,98.50
2019-02-22T04:50:32.632Z,98.70
2019-02-22T04:52:59.587Z,98.90
2019-02-22T04:55:26.242Z,98.80
2019-02-22T04:57:52.900Z,98.30
2019-02-22T05:00:19.531Z,98.70
2019-02-22T05:02:46.354Z,98.90
2019-02-22T05:05:12.997Z,99.00
2019-02-22T05:07:39.836Z,99.10
2019-02-22T05:10:06.570Z,99.20
2019-02-22T05:12:33.260Z,99.20
2019-02-22T05:15:11.415Z,99.40
2019-02-22T05:17:28.505Z,99.60
2019-02-22T05:19:55.290Z,99.40
2019-02-22T05:22:21.944Z,99.10
2019-02-22T05:24:48.616Z,98.70
2019-02-22T05:27:15.377Z,98.70
2019-02-22T05:29:42.145Z,99.10
2019-02-22T05:32:08.878Z,98.70
2019-02-22T05:34:35.651Z,98.90
2019-02-22T05:37:02.306Z,98.70
2019-02-22T05:39:29.000Z,98.80
2019-02-22T05:41:55.887Z,98.60
2019-02-22T05:44:22.583Z,98.60
2019-02-22T05:47:00.022Z,98.50
2019-02-22T05:49:17.686Z,98.30
2019-02-22T05:51:44.335Z,98.10
2019-02-22T05:54:11.035Z,98.40
2019-02-22T05:56:37.716Z,98.30
2019-02-22T05:59:04.347Z,98.50
2019-02-22T06:01:31.114Z,98.30
2019-02-22T06:03:57.749Z,98.40
2019-02-22T06:06:24.463Z,98.50
2019-02-22T06:08:51.230Z,98.60
2019-02-22T06:11:17.861Z,98.10
2019-02-22T06:13:44.577Z,98.20
2019-02-22T06:16:11.228Z,98.60
2019-02-22T06:18:37.882Z,98.90
2019-02-22T06:21:04.548Z,98.30
2019-02-22T06:23:31.287Z,98.30
2019-02-22T06:25:57.937Z,98.80
2019-02-22T06:28:24.562Z,98.30
2019-02-22T06:30:51.257Z,97.90
2019-02-22T06:33:17.906Z,97.90
2019-02-22T06:35:44.604Z,98.20
2019-02-22T06:38:11.236Z,98.40
2019-02-22T06:40:38.040Z,98.00
2019-02-22T06:43:04.737Z,97.90
2019-02-22T06:45:31.366Z,98.00
2019-02-22T06:47:58.045Z,97.60
2019-02-22T06:50:33.660Z,98.20
2019-02-22T06:52:53.164Z,98.60
2019-02-22T06:55:19.820Z,98.60
2019-02-22T06:57:46.577Z,98.20
2019-02-22T07:00:13.250Z,98.40
2019-02-22T07:02:40.429Z,98.60
2019-02-22T07:05:07.090Z,98.30
2019-02-22T07:07:33.761Z,98.10
2019-02-22T07:10:00.393Z,98.00
2019-02-22T07:12:31.829Z,97.70
2019-02-22T07:14:58.534Z,97.60
2019-02-22T07:17:25.201Z,97.80
2019-02-22T07:19:51.885Z,97.50
2019-02-22T07:22:18.618Z,97.30
2019-02-22T07:24:45.286Z,97.40
2019-02-22T07:27:12.043Z,97.50
2019-02-22T07:29:38.663Z,97.70
2019-02-22T07:32:06.450Z,97.60
2019-02-22T07:34:33.265Z,97.50
2019-02-22T07:36:59.957Z,97.90
2019-02-22T07:39:28.113Z,97.30
2019-02-22T07:41:55.021Z,97.20
2019-02-22T07:44:21.712Z,97.30
2019-02-22T07:46:48.453Z,97.60
2019-02-22T07:49:23.157Z,97.30
2019-02-22T07:51:49.915Z,97.50
2019-02-22T07:54:16.568Z,97.70
2019-02-22T07:56:43.213Z,98.10
2019-02-22T07:59:09.887Z,97.70
2019-02-22T08:01:46.851Z,97.50
2019-02-22T08:04:04.986Z,97.40
2019-02-22T08:06:31.771Z,97.50
2019-02-22T08:08:58.521Z,98.00
2019-02-22T08:11:25.180Z,97.70
2019-02-22T08:13:51.866Z,97.90
2019-02-22T08:16:18.535Z,97.50
2019-02-22T08:18:45.277Z,97.40
2019-02-22T08:21:11.998Z,97.20
2019-02-22T08:23:38.601Z,97.60
2019-02-22T08:26:05.233Z,97.50
2019-02-22T08:28:32.007Z,97.40
2019-02-22T08:30:58.663Z,97.60
2019-02-22T08:33:25.364Z,97.80
2019-02-22T08:35:51.993Z,98.20
2019-02-22T08:38:18.765Z,97.90
2019-02-22T08:40:45.505Z,97.50
2019-02-22T08:43:12.175Z,97.30
2019-02-22T08:45:38.862Z,97.50
2019-02-22T08:48:05.494Z,97.40
2019-02-22T08:50:32.165Z,97.40
2019-02-22T08:52:58.806Z,97.40
2019-02-22T08:55:25.468Z,97.20
2019-02-22T08:57:52.121Z,97.10
2019-02-22T09:00:18.997Z,97.10
2019-02-22T09:02:45.623Z,97.20
2019-02-22T09:05:12.400Z,97.40
2019-02-22T09:07:39.145Z,97.50
2019-02-22T09:10:08.897Z,97.20
2019-02-22T09:12:35.569Z,97.40
2019-02-22T09:15:34.191Z,96.90
2019-02-22T09:17:59.895Z,96.90
2019-02-22T09:20:26.574Z,96.90
2019-02-22T09:22:53.246Z,97.00
2019-02-22T09:25:19.882Z,97.00
2019-02-22T09:27:46.571Z,97.10
2019-02-22T09:30:15.104Z,97.10
2019-02-22T09:32:41.830Z,96.90
2019-02-22T09:35:09.883Z,97.00
2019-02-22T09:37:36.730Z,97.20
2019-02-22T09:40:06.559Z,97.80
2019-02-22T09:42:33.233Z,97.90
2019-02-22T09:44:59.862Z,98.10
2019-02-22T09:47:26.558Z,98.10
2019-02-22T09:49:53.285Z,98.20
2019-02-22T09:52:19.962Z,97.70
2019-02-22T09:54:46.635Z,98.20
2019-02-22T09:57:13.402Z,97.80
2019-02-22T09:59:40.057Z,98.40
2019-02-22T10:02:06.741Z,97.90
2019-02-22T10:04:33.408Z,97.50
2019-02-22T10:07:00.062Z,97.40
2019-02-22T10:09:26.746Z,97.20
2019-02-22T10:11:53.365Z,97.10
2019-02-22T10:14:20.035Z,97.50
2019-02-22T10:16:47.114Z,96.80
2019-02-22T10:19:13.927Z,97.50
2019-02-22T10:21:40.649Z,97.10
2019-02-22T10:24:07.349Z,96.70
2019-02-22T10:26:34.002Z,96.10
2019-02-22T10:29:00.821Z,96.30
2019-02-22T10:31:27.449Z,97.00
2019-02-22T10:33:54.137Z,97.30
2019-02-22T10:36:20.826Z,97.50
2019-02-22T10:38:47.509Z,95.60
2019-02-22T10:41:14.130Z,96.00
2019-02-22T10:43:40.805Z,95.40
2019-02-22T10:46:07.474Z,95.20
2019-02-22T10:48:34.106Z,94.20
2019-02-22T10:51:00.785Z,94.40
2019-02-22T10:53:27.543Z,93.90
2019-02-22T10:55:54.196Z,94.10
2019-02-22T10:58:20.845Z,93.80
2019-02-22T11:00:47.515Z,94.00
2019-02-22T11:03:14.157Z,93.70
2019-02-22T11:05:40.827Z,93.90
2019-02-22T11:08:07.539Z,93.50
2019-02-22T11:10:34.182Z,93.70
2019-02-22T11:13:00.818Z,93.50
2019-02-22T11:15:27.626Z,93.40
2019-02-22T11:17:54.269Z,93.00
2019-02-22T11:20:20.904Z,93.00
2019-02-22T11:22:47.649Z,92.60
2019-02-22T11:25:15.537Z,92.50
2019-02-22T11:27:42.330Z,92.80
2019-02-22T11:30:11.199Z,92.10
2019-02-22T11:32:37.852Z,93.00
2019-02-22T11:35:06.010Z,92.80
2019-02-22T11:37:32.638Z,92.60
2019-02-22T11:39:59.307Z,92.60
2019-02-22T11:42:25.926Z,92.50
2019-02-22T11:44:52.606Z,92.20
2019-02-22T11:47:19.230Z,92.20
2019-02-22T11:49:45.905Z,92.20
2019-02-22T11:52:12.538Z,92.20
2019-02-22T11:54:39.234Z,91.90
2019-02-22T11:57:06.162Z,91.30
2019-02-22T11:59:32.856Z,91.70
2019-02-22T12:01:59.607Z,91.50
2019-02-22T12:04:26.289Z,90.90
2019-02-22T12:06:52.920Z,90.90
2019-02-22T12:09:19.612Z,90.80
2019-02-22T12:11:46.273Z,91.30
2019-02-22T12:14:13.097Z,91.20
2019-02-22T12:16:39.899Z,91.10
2019-02-22T12:19:06.633Z,90.90
2019-02-22T12:21:33.421Z,91.00
2019-02-22T12:24:00.118Z,90.10
2019-02-22T12:26:26.774Z,89.00
2019-02-22T12:28:53.431Z,89.10
2019-02-22T12:31:20.108Z,90.00
2019-02-22T12:33:46.745Z,89.70
2019-02-22T12:36:13.441Z,88.90
2019-02-22T12:38:40.181Z,89.10
2019-02-22T12:41:06.837Z,88.20
2019-02-22T12:43:33.498Z,88.20
2019-02-22T12:46:00.270Z,88.60
2019-02-22T12:48:26.899Z,88.50
2019-02-22T12:50:53.574Z,87.50
2019-02-22T12:53:20.206Z,88.60
2019-02-22T12:55:47.059Z,87.60
2019-02-22T12:58:13.728Z,87.70
2019-02-22T13:00:40.405Z,87.50
2019-02-22T13:03:07.157Z,88.70
2019-02-22T13:05:33.825Z,86.90
2019-02-22T13:08:00.516Z,87.90
2019-02-22T13:10:27.150Z,88.40
2019-02-22T13:12:53.816Z,88.80
2019-02-22T13:15:20.668Z,89.60
2019-02-22T13:17:47.304Z,88.20
2019-02-22T13:20:14.130Z,88.80
2019-02-22T13:22:41.101Z,88.60
2019-02-22T13:25:09.520Z,88.40
2019-02-22T13:27:36.403Z,88.70
2019-02-22T13:30:14.733Z,88.60
2019-02-22T13:32:41.578Z,88.50
2019-02-22T13:35:11.055Z,88.60
2019-02-22T13:37:37.664Z,88.10
2019-02-22T13:40:08.111Z,87.50
2019-02-22T13:42:34.843Z,87.90
2019-02-22T13:45:01.629Z,89.20
2019-02-22T13:47:28.477Z,88.90
2019-02-22T13:49:55.278Z,88.80
2019-02-22T13:52:21.970Z,87.70
2019-02-22T13:54:48.657Z,88.90
2019-02-22T13:57:15.429Z,89.90
2019-02-22T13:59:42.394Z,90.80
2019-02-22T14:02:09.202Z,91.40
2019-02-22T14:04:35.959Z,92.00
2019-02-22T14:07:02.745Z,92.00
2019-02-22T14:09:30.023Z,92.10
2019-02-22T14:11:56.958Z,92.10
2019-02-22T14:14:23.641Z,91.70
2019-02-22T14:16:50.552Z,91.50
2019-02-22T14:19:17.335Z,91.60
2019-02-22T14:21:43.962Z,91.50
2019-02-22T14:24:10.646Z,91.60
2019-02-22T14:26:37.273Z,91.60
2019-02-22T14:29:03.941Z,91.50
2019-02-22T14:31:30.580Z,91.50
2019-02-22T14:33:57.267Z,91.80
2019-02-22T14:36:43.773Z,91.90
2019-02-22T14:39:10.798Z,91.90
2019-02-22T14:41:37.624Z,91.50
2019-02-22T14:44:04.413Z,91.40
2019-02-22T14:46:31.031Z,91.60
2019-02-22T14:48:57.693Z,91.60
2019-02-22T14:51:24.360Z,91.60
2019-02-22T14:53:51.140Z,91.50
2019-02-22T14:56:17.749Z,91.50
2019-02-22T14:58:44.403Z,91.20
2019-02-22T15:01:11.181Z,90.90
2019-02-22T15:03:37.833Z,91.10
2019-02-22T15:06:04.602Z,91.00
2019-02-22T15:08:31.298Z,91.00
2019-02-22T15:10:57.992Z,90.80
2019-02-22T15:13:24.659Z,90.80
2019-02-22T15:16:01.811Z,90.60
2019-02-22T15:18:27.597Z,90.80
2019-02-22T15:20:54.336Z,90.70
2019-02-22T15:23:21.133Z,90.60
2019-02-22T15:25:47.913Z,90.60
2019-02-22T15:28:14.541Z,90.30
2019-02-22T15:30:41.227Z,90.90
2019-02-22T15:33:07.972Z,90.80
2019-02-22T15:35:34.824Z,91.20
2019-02-22T15:38:01.506Z,91.20
2019-02-22T15:40:28.218Z,91.10
2019-02-22T15:42:55.052Z,90.90
2019-02-22T15:45:21.720Z,91.00
2019-02-22T15:47:49.039Z,91.10
2019-02-22T15:50:17.048Z,90.50
2019-02-22T15:52:44.313Z,90.60
2019-02-22T15:55:14.445Z,90.90
2019-02-22T15:57:41.381Z,90.60
2019-02-22T16:00:23.496Z,90.70
2019-02-22T16:02:50.145Z,90.90
2019-02-22T16:05:18.688Z,90.70
2019-02-22T16:07:45.353Z,91.40
2019-02-22T16:10:12.182Z,91.40
2019-02-22T16:12:38.981Z,92.00
2019-02-22T16:15:08.118Z,92.10
2019-02-22T16:17:34.806Z,92.20
2019-02-22T16:20:01.604Z,92.30
2019-02-22T16:22:28.393Z,92.70
2019-02-22T16:24:55.046Z,92.30
2019-02-22T16:27:21.664Z,92.20
2019-02-22T16:29:48.328Z,92.20
2019-02-22T16:32:15.093Z,91.80
2019-02-22T16:34:43.796Z,92.30
2019-02-22T16:37:10.505Z,92.60
2019-02-22T16:39:37.203Z,92.50
2019-02-22T16:42:03.859Z,92.10
2019-02-22T16:44:30.713Z,91.70
2019-02-22T16:46:57.799Z,92.20
2019-02-22T16:49:24.765Z,92.40
2019-02-22T16:51:51.410Z,92.00
2019-02-22T16:54:18.142Z,91.70
2019-02-22T16:56:44.778Z,91.40
2019-02-22T16:59:11.451Z,91.20
2019-02-22T17:01:38.394Z,91.20
2019-02-22T17:04:05.170Z,91.40
2019-02-22T17:06:31.813Z,91.40
2019-02-22T17:08:58.481Z,91.10
2019-02-22T17:11:25.218Z,91.70
2019-02-22T17:13:51.927Z,91.30
2019-02-22T17:16:18.561Z,91.90
2019-02-22T17:18:45.409Z,92.40
2019-02-22T17:21:13.157Z,92.40
2019-02-22T17:23:39.725Z,92.10
2019-02-22T17:26:08.489Z,92.90
2019-02-22T17:28:35.189Z,93.40
2019-02-22T17:31:01.985Z,93.70
2019-02-22T17:33:28.573Z,93.40
2019-02-22T17:35:55.351Z,93.60
2019-02-22T17:38:22.041Z,93.90
2019-02-22T17:40:48.701Z,93.60
2019-02-22T17:43:15.325Z,93.80
2019-02-22T17:45:42.121Z,94.10
2019-02-22T17:48:08.752Z,94.40
2019-02-22T17:50:35.432Z,94.40
2019-02-22T17:53:02.091Z,93.80
2019-02-22T17:55:28.803Z,93.50
2019-02-22T17:57:55.817Z,93.50
2019-02-22T18:00:24.400Z,93.20
2019-02-22T18:02:51.201Z,93.60
2019-02-22T18:05:17.932Z,93.40
2019-02-22T18:07:44.673Z,93.70
2019-02-22T18:10:11.409Z,93.80
2019-02-22T18:12:38.205Z,93.70
2019-02-22T18:15:09.769Z,94.50
2019-02-22T18:17:36.651Z,94.50
2019-02-22T18:20:05.985Z,94.60
2019-02-22T18:22:32.625Z,94.30
2019-02-22T18:24:59.320Z,94.30
2019-02-22T18:27:25.960Z,94.30
2019-02-22T18:29:52.637Z,94.90
2019-02-22T18:32:19.491Z,94.90
2019-02-22T18:34:47.051Z,95.20
2019-02-22T18:37:13.691Z,96.60
2019-02-22T18:39:40.351Z,98.90
2019-02-22T18:42:07.108Z,95.50
2019-02-22T18:44:33.797Z,95.60
2019-02-22T18:47:00.519Z,95.00
2019-02-22T18:49:27.201Z,94.80
2019-02-22T18:51:53.865Z,95.40
2019-02-22T18:54:20.572Z,95.30
2019-02-22T18:56:47.234Z,94.90
2019-02-22T18:59:13.893Z,94.90
2019-02-22T19:01:40.653Z,94.90
2019-02-22T19:04:07.324Z,94.20
2019-02-22T19:06:34.103Z,94.40
2019-02-22T19:09:00.987Z,94.00
2019-02-22T19:11:27.639Z,93.80
2019-02-22T19:13:54.322Z,94.00
2019-02-22T19:16:21.015Z,94.00
2019-02-22T19:18:47.721Z,93.50
2019-02-22T19:21:14.454Z,93.60
2019-02-22T19:23:41.106Z,93.70
2019-02-22T19:26:07.798Z,93.80
2019-02-22T19:28:34.534Z,93.40
2019-02-22T19:31:01.220Z,93.10
2019-02-22T19:33:27.836Z,92.90
2019-02-22T19:35:54.535Z,92.80
2019-02-22T19:38:21.190Z,92.90
2019-02-22T19:40:48.211Z,92.80
2019-02-22T19:43:14.982Z,92.60
2019-02-22T19:45:41.749Z,92.70
2019-02-22T19:48:08.377Z,93.10
2019-02-22T19:50:41.332Z,92.80
2019-02-22T19:53:03.706Z,93.00
2019-02-22T19:55:30.477Z,93.30
2019-02-22T19:57:57.240Z,93.30
2019-02-22T20:00:23.917Z,93.30
2019-02-22T20:02:51.536Z,93.30
2019-02-22T20:05:18.150Z,93.70
2019-02-22T20:07:44.841Z,93.70
2019-02-22T20:10:18.523Z,93.40
2019-02-22T20:12:45.428Z,93.20
2019-02-22T20:15:13.955Z,92.60
2019-02-22T20:17:40.641Z,92.50
2019-02-22T20:20:10.597Z,92.00
2019-02-22T20:22:37.373Z,92.00
2019-02-22T20:25:04.777Z,91.60
2019-02-22T20:27:32.551Z,91.80
2019-02-22T20:29:59.250Z,92.10
2019-02-22T20:32:25.875Z,91.70
2019-02-22T20:34:52.582Z,91.40
2019-02-22T20:37:19.335Z,91.30
2019-02-22T20:39:47.575Z,91.50
2019-02-22T20:42:14.834Z,92.00
2019-02-22T20:44:43.326Z,91.90
2019-02-22T20:47:10.908Z,91.30
2019-02-22T20:49:39.560Z,91.70
2019-02-22T20:52:06.812Z,91.70
2019-02-22T20:54:34.063Z,91.50
2019-02-22T20:57:01.930Z,92.00
2019-02-22T20:59:30.000Z,91.40
2019-02-22T21:01:59.916Z,91.90
2019-02-22T21:04:26.581Z,91.60
2019-02-22T21:06:53.265Z,91.60
2019-02-22T21:09:20.031Z,91.00
2019-02-22T21:11:46.717Z,91.70
2019-02-22T21:14:13.394Z,92.00
2019-02-22T21:16:40.085Z,91.90
2019-02-22T21:19:06.828Z,91.70
2019-02-22T21:21:33.936Z,92.00
2019-02-22T21:24:00.599Z,91.80
2019-02-22T21:26:27.368Z,91.30
2019-02-22T21:28:54.134Z,91.10
2019-02-22T21:31:20.792Z,90.90
2019-02-22T21:33:48.659Z,90.90
2019-02-22T21:36:15.606Z,90.60
2019-02-22T21:38:42.208Z,90.90
2019-02-22T21:41:09.232Z,91.50
2019-02-22T21:43:35.894Z,91.20
2019-02-22T21:46:02.530Z,91.50
2019-02-22T21:48:29.210Z,91.20
2019-02-22T21:50:55.843Z,91.20
2019-02-22T21:53:25.110Z,90.40
2019-02-22T21:55:51.008Z,90.30
2019-02-22T21:58:17.725Z,90.90
2019-02-22T22:00:44.461Z,90.80
2019-02-22T22:03:11.145Z,90.80
2019-02-22T22:05:37.899Z,90.80
2019-02-22T22:08:04.689Z,90.60
2019-02-22T22:10:31.352Z,91.10
2019-02-22T22:12:58.169Z,90.10
2019-02-22T22:15:24.904Z,90.60
2019-02-22T22:17:51.581Z,90.70
2019-02-22T22:20:18.253Z,90.40
2019-02-22T22:22:44.892Z,90.20
2019-02-22T22:25:12.957Z,90.20
2019-02-22T22:27:39.710Z,90.50
2019-02-22T22:30:09.066Z,90.20
2019-02-22T22:32:35.809Z,90.20
2019-02-22T22:35:02.489Z,90.30
2019-02-22T22:37:29.233Z,90.00
2019-02-22T22:39:55.959Z,90.10
2019-02-22T22:42:22.768Z,90.10
2019-02-22T22:44:49.549Z,90.20
2019-02-22T22:47:16.221Z,90.30
2019-02-22T22:49:43.844Z,89.70
2019-02-22T22:52:10.649Z,90.60
2019-02-22T22:54:37.401Z,90.10
2019-02-22T22:57:04.078Z,90.60
2019-02-22T22:59:30.713Z,90.50
2019-02-22T23:01:57.510Z,89.80
2019-02-22T23:04:24.173Z,88.90
2019-02-22T23:06:50.822Z,89.40
2019-02-22T23:09:18.741Z,89.20
2019-02-22T23:11:45.533Z,88.90
2019-02-22T23:14:12.317Z,88.90
2019-02-22T23:16:39.006Z,90.70
2019-02-22T23:19:05.734Z,90.80
2019-02-22T23:21:32.513Z,90.20
2019-02-22T23:23:59.321Z,89.70
2019-02-22T23:26:25.953Z,89.40
2019-02-22T23:28:52.632Z,88.80
2019-02-22T23:31:19.383Z,88.60
2019-02-22T23:33:46.158Z,88.20
2019-02-22T23:36:13.111Z,89.20
2019-02-22T23:38:39.791Z,88.50
2019-02-22T23:41:06.566Z,90.00
2019-02-22T23:43:33.258Z,88.40
2019-02-22T23:46:00.072Z,89.10
2019-02-22T23:48:26.803Z,87.80
2019-02-22T23:50:53.499Z,88.70
2019-02-22T23:53:20.137Z,89.80
2019-02-22T23:55:46.915Z,88.50
2019-02-22T23:58:13.543Z,87.90
